Sweetwater, Florida
Current Conditions -  °F | °C
As of 9:53 PM on Saturday 24 Jan 2015 (Local Time) from KMIA Reporting Station
Broken Clouds Broken Clouds  
Wind Chill: 63°   Ceiling: 25000
Heat Index: 63°   Visibility: 10mi
Dew Point: 51°   Wind: 7mph
Humidity: 65%   Direction: 310°NW
Pressure: 30.02"   Gusts: NA
Location:  25.76°N, 80.37°W
Report Text: KMIA 250253Z 31006KT 10SM BKN250 17/11 A3002 RMK AO2 SLP164 T01720106 51015
Loading
Personal Weather Stations






























Interactive Weather Map New forecast layout! Learn more

10-Day Weather Forecast

Advertisements
Track Severe Weather on mobile